sensor_id;sensor_type;location;lat;lon;timestamp;pressure;altitude;pressure_sealevel;temperature;humidity
63285;BME280;49409;55.708;37.522;2022-09-27T00:01:04;99022.25;;;10.73;59.23
63285;BME280;49409;55.708;37.522;2022-09-27T00:03:30;99010.19;;;10.67;59.89
63285;BME280;49409;55.708;37.522;2022-09-27T00:06:19;99010.75;;;10.78;59.75
63285;BME280;49409;55.708;37.522;2022-09-27T00:08:46;98989.69;;;10.51;59.01
63285;BME280;49409;55.708;37.522;2022-09-27T00:13:48;98975.31;;;10.24;58.82
63285;BME280;49409;55.708;37.522;2022-09-27T00:16:14;99013.47;;;10.42;59.64
63285;BME280;49409;55.708;37.522;2022-09-27T00:18:39;98989.41;;;10.26;59.53
63285;BME280;49409;55.708;37.522;2022-09-27T00:21:10;99007.69;;;10.36;59.77
63285;BME280;49409;55.708;37.522;2022-09-27T00:23:37;99005.69;;;10.37;59.09
63285;BME280;49409;55.708;37.522;2022-09-27T00:26:04;99006.63;;;10.30;59.54
63285;BME280;49409;55.708;37.522;2022-09-27T00:28:29;98995.72;;;10.23;59.62
63285;BME280;49409;55.708;37.522;2022-09-27T00:30:55;99023.00;;;10.37;59.68
63285;BME280;49409;55.708;37.522;2022-09-27T00:33:21;99000.06;;;10.24;59.31
63285;BME280;49409;55.708;37.522;2022-09-27T00:35:47;99019.19;;;10.31;59.13
63285;BME280;49409;55.708;37.522;2022-09-27T00:38:12;99014.16;;;10.26;59.40
63285;BME280;49409;55.708;37.522;2022-09-27T00:40:38;99019.66;;;10.26;59.61
63285;BME280;49409;55.708;37.522;2022-09-27T00:43:24;99031.25;;;10.37;59.10
63285;BME280;49409;55.708;37.522;2022-09-27T00:45:55;99025.50;;;10.28;58.90
63285;BME280;49409;55.708;37.522;2022-09-27T00:48:26;99028.03;;;10.19;59.06
63285;BME280;49409;55.708;37.522;2022-09-27T00:50:55;99026.84;;;10.20;59.31
63285;BME280;49409;55.708;37.522;2022-09-27T00:53:32;99032.69;;;10.22;59.16
63285;BME280;49409;55.708;37.522;2022-09-27T00:56:19;99021.97;;;10.07;59.21
63285;BME280;49409;55.708;37.522;2022-09-27T00:59:00;99030.78;;;10.19;59.32
63285;BME280;49409;55.708;37.522;2022-09-27T01:01:27;99024.38;;;10.05;59.19
63285;BME280;49409;55.708;37.522;2022-09-27T01:04:08;99010.75;;;9.98;59.29
63285;BME280;49409;55.708;37.522;2022-09-27T01:06:35;99020.56;;;9.99;59.33
63285;BME280;49409;55.708;37.522;2022-09-27T01:09:02;99028.38;;;10.01;58.83
63285;BME280;49409;55.708;37.522;2022-09-27T01:12:00;99028.53;;;10.13;59.09
63285;BME280;49409;55.708;37.522;2022-09-27T01:34:36;99026.97;;;9.92;59.38
63285;BME280;49409;55.708;37.522;2022-09-27T01:40:14;99024.78;;;9.84;58.84
63285;BME280;49409;55.708;37.522;2022-09-27T01:47:55;99017.84;;;9.76;59.21
63285;BME280;49409;55.708;37.522;2022-09-27T01:50:33;99017.84;;;9.76;58.79
63285;BME280;49409;55.708;37.522;2022-09-27T01:53:24;99010.63;;;9.62;59.54
63285;BME280;49409;55.708;37.522;2022-09-27T01:55:50;99011.75;;;9.64;59.19
63285;BME280;49409;55.708;37.522;2022-09-27T01:58:25;99021.19;;;9.63;59.29
63285;BME280;49409;55.708;37.522;2022-09-27T02:00:53;99014.63;;;9.57;58.84
63285;BME280;49409;55.708;37.522;2022-09-27T02:03:34;99004.84;;;9.56;59.21
63285;BME280;49409;55.708;37.522;2022-09-27T02:06:06;98999.81;;;9.51;58.99
63285;BME280;49409;55.708;37.522;2022-09-27T02:08:54;99014.88;;;9.66;58.91
63285;BME280;49409;55.708;37.522;2022-09-27T02:11:22;99016.19;;;9.58;58.76
63285;BME280;49409;55.708;37.522;2022-09-27T02:14:32;98999.00;;;9.54;59.58
63285;BME280;49409;55.708;37.522;2022-09-27T02:16:51;99009.50;;;9.59;59.26
63285;BME280;49409;55.708;37.522;2022-09-27T02:19:31;99014.16;;;9.62;59.03
63285;BME280;49409;55.708;37.522;2022-09-27T02:25:10;99008.97;;;9.68;59.06
63285;BME280;49409;55.708;37.522;2022-09-27T02:30:17;98988.47;;;9.49;58.88
63285;BME280;49409;55.708;37.522;2022-09-27T02:32:43;99007.66;;;9.52;58.74
63285;BME280;49409;55.708;37.522;2022-09-27T02:35:14;98999.94;;;9.44;58.80
63285;BME280;49409;55.708;37.522;2022-09-27T02:37:42;98999.56;;;9.42;59.29
63285;BME280;49409;55.708;37.522;2022-09-27T02:40:07;99014.41;;;9.48;59.33
63285;BME280;49409;55.708;37.522;2022-09-27T02:42:34;99016.66;;;9.53;59.09
63285;BME280;49409;55.708;37.522;2022-09-27T02:45:00;99019.41;;;9.53;59.48
63285;BME280;49409;55.708;37.522;2022-09-27T02:47:34;99022.88;;;9.57;59.32
63285;BME280;49409;55.708;37.522;2022-09-27T02:50:32;99010.28;;;9.60;58.97
63285;BME280;49409;55.708;37.522;2022-09-27T02:56:15;99029.66;;;9.72;58.82
63285;BME280;49409;55.708;37.522;2022-09-27T03:04:52;99011.16;;;9.53;59.33
63285;BME280;49409;55.708;37.522;2022-09-27T03:07:20;99017.16;;;9.48;58.77
63285;BME280;49409;55.708;37.522;2022-09-27T03:09:49;99040.19;;;9.54;59.17
63285;BME280;49409;55.708;37.522;2022-09-27T03:12:17;99028.59;;;9.43;58.80
63285;BME280;49409;55.708;37.522;2022-09-27T03:15:01;99039.84;;;9.52;58.93
63285;BME280;49409;55.708;37.522;2022-09-27T03:17:26;99017.31;;;9.37;58.87
63285;BME280;49409;55.708;37.522;2022-09-27T03:19:52;99045.03;;;9.46;59.24
63285;BME280;49409;55.708;37.522;2022-09-27T03:22:17;99038.38;;;9.44;58.98
63285;BME280;49409;55.708;37.522;2022-09-27T03:24:43;99040.75;;;9.42;59.38
63285;BME280;49409;55.708;37.522;2022-09-27T03:27:10;99046.63;;;9.44;59.53
63285;BME280;49409;55.708;37.522;2022-09-27T03:29:36;99032.31;;;9.32;58.92
63285;BME280;49409;55.708;37.522;2022-09-27T03:32:02;99047.81;;;9.43;59.05
63285;BME280;49409;55.708;37.522;2022-09-27T03:34:28;99039.63;;;9.39;58.97
63285;BME280;49409;55.708;37.522;2022-09-27T03:36:54;99000.88;;;9.10;58.95
63285;BME280;49409;55.708;37.522;2022-09-27T03:39:20;99047.56;;;9.33;59.17
63285;BME280;49409;55.708;37.522;2022-09-27T03:41:46;99038.50;;;9.37;58.91
63285;BME280;49409;55.708;37.522;2022-09-27T03:44:11;99047.09;;;9.39;59.36
63285;BME280;49409;55.708;37.522;2022-09-27T03:46:37;99028.84;;;9.28;58.96
63285;BME280;49409;55.708;37.522;2022-09-27T03:49:02;99032.41;;;9.25;59.15
63285;BME280;49409;55.708;37.522;2022-09-27T03:51:28;99043.66;;;9.35;58.92
63285;BME280;49409;55.708;37.522;2022-09-27T03:53:54;99029.66;;;9.25;58.94
63285;BME280;49409;55.708;37.522;2022-09-27T03:56:19;99051.47;;;9.36;59.28
63285;BME280;49409;55.708;37.522;2022-09-27T03:58:45;99046.81;;;9.33;58.97
63285;BME280;49409;55.708;37.522;2022-09-27T04:01:10;99021.00;;;9.27;59.03
63285;BME280;49409;55.708;37.522;2022-09-27T04:03:36;99042.38;;;9.39;58.91
63285;BME280;49409;55.708;37.522;2022-09-27T04:06:03;99054.50;;;9.42;59.13
63285;BME280;49409;55.708;37.522;2022-09-27T04:08:28;99054.50;;;9.42;59.41
63285;BME280;49409;55.708;37.522;2022-09-27T04:10:55;99048.66;;;9.40;58.99
63285;BME280;49409;55.708;37.522;2022-09-27T04:13:21;99028.84;;;9.28;59.12
63285;BME280;49409;55.708;37.522;2022-09-27T04:15:46;99042.03;;;9.37;58.98
63285;BME280;49409;55.708;37.522;2022-09-27T04:18:12;99029.91;;;9.35;59.17
63285;BME280;49409;55.708;37.522;2022-09-27T04:20:37;99052.00;;;9.51;59.22
63285;BME280;49409;55.708;37.522;2022-09-27T04:23:03;99051.84;;;9.62;59.38
63285;BME280;49409;55.708;37.522;2022-09-27T04:25:29;99011.34;;;9.42;59.01
63285;BME280;49409;55.708;37.522;2022-09-27T04:27:57;99038.28;;;9.75;59.35
63285;BME280;49409;55.708;37.522;2022-09-27T04:30:23;99031.03;;;9.84;59.47
63285;BME280;49409;55.708;37.522;2022-09-27T04:32:51;99053.69;;;10.12;59.02
63285;BME280;49409;55.708;37.522;2022-09-27T04:35:17;99049.59;;;10.20;58.83
63285;BME280;49409;55.708;37.522;2022-09-27T04:38:01;99057.25;;;10.32;58.93
63285;BME280;49409;55.708;37.522;2022-09-27T04:40:27;99072.00;;;10.42;59.07
63285;BME280;49409;55.708;37.522;2022-09-27T04:42:52;99063.63;;;10.49;58.71
63285;BME280;49409;55.708;37.522;2022-09-27T04:45:18;99044.00;;;10.47;59.10
63285;BME280;49409;55.708;37.522;2022-09-27T04:47:45;99055.47;;;10.62;58.76
63285;BME280;49409;55.708;37.522;2022-09-27T04:50:11;99042.00;;;10.68;58.86
63285;BME280;49409;55.708;37.522;2022-09-27T04:52:38;99045.38;;;10.76;59.03
63285;BME280;49409;55.708;37.522;2022-09-27T04:55:05;99039.31;;;10.84;58.73
63285;BME280;49409;55.708;37.522;2022-09-27T04:57:31;99066.03;;;11.04;58.73
63285;BME280;49409;55.708;37.522;2022-09-27T04:59:57;99069.81;;;11.10;59.09
63285;BME280;49409;55.708;37.522;2022-09-27T05:02:26;99053.38;;;11.06;59.08
63285;BME280;49409;55.708;37.522;2022-09-27T05:04:52;99047.25;;;11.15;59.27
63285;BME280;49409;55.708;37.522;2022-09-27T05:07:20;99062.94;;;11.35;59.40
63285;BME280;49409;55.708;37.522;2022-09-27T05:09:46;99055.72;;;11.41;59.42
63285;BME280;49409;55.708;37.522;2022-09-27T05:12:11;99047.44;;;11.41;59.57
63285;BME280;49409;55.708;37.522;2022-09-27T05:14:38;99063.63;;;11.55;59.88
63285;BME280;49409;55.708;37.522;2022-09-27T05:17:03;99056.75;;;11.63;59.99
63285;BME280;49409;55.708;37.522;2022-09-27T05:19:32;99037.72;;;11.52;59.70
63285;BME280;49409;55.708;37.522;2022-09-27T05:21:57;99062.25;;;11.80;60.01
63285;BME280;49409;55.708;37.522;2022-09-27T05:24:23;99042.44;;;11.85;60.05
63285;BME280;49409;55.708;37.522;2022-09-27T05:26:48;99022.00;;;11.82;60.35
63285;BME280;49409;55.708;37.522;2022-09-27T05:29:15;99057.91;;;12.12;60.22
63285;BME280;49409;55.708;37.522;2022-09-27T05:31:42;99025.00;;;12.04;60.09
63285;BME280;49409;55.708;37.522;2022-09-27T05:34:07;99060.84;;;12.34;59.58
63285;BME280;49409;55.708;37.522;2022-09-27T05:36:33;99049.81;;;12.34;59.92
63285;BME280;49409;55.708;37.522;2022-09-27T05:38:59;99049.88;;;12.46;59.76
63285;BME280;49409;55.708;37.522;2022-09-27T05:41:24;99053.97;;;12.55;59.35
63285;BME280;49409;55.708;37.522;2022-09-27T05:43:50;99053.28;;;12.50;59.66
63285;BME280;49409;55.708;37.522;2022-09-27T05:46:17;99057.81;;;12.57;59.67
63285;BME280;49409;55.708;37.522;2022-09-27T05:48:42;99049.59;;;12.70;59.79
63285;BME280;49409;55.708;37.522;2022-09-27T05:51:07;99031.47;;;12.69;59.97
63285;BME280;49409;55.708;37.522;2022-09-27T05:53:33;99033.78;;;12.83;59.76
63285;BME280;49409;55.708;37.522;2022-09-27T05:56:05;99044.41;;;13.10;59.89
63285;BME280;49409;55.708;37.522;2022-09-27T05:58:31;99028.41;;;13.18;59.42
63285;BME280;49409;55.708;37.522;2022-09-27T06:00:56;99025.75;;;13.27;59.19
63285;BME280;49409;55.708;37.522;2022-09-27T06:03:22;99033.28;;;13.40;59.16
63285;BME280;49409;55.708;37.522;2022-09-27T06:05:47;99036.22;;;13.58;58.79
63285;BME280;49409;55.708;37.522;2022-09-27T06:08:13;99017.19;;;13.60;58.86
63285;BME280;49409;55.708;37.522;2022-09-27T06:10:40;99024.50;;;13.67;58.96
63285;BME280;49409;55.708;37.522;2022-09-27T06:13:09;99026.44;;;13.79;58.92
63285;BME280;49409;55.708;37.522;2022-09-27T06:15:36;99008.44;;;13.75;58.29
63285;BME280;49409;55.708;37.522;2022-09-27T06:18:15;99030.16;;;13.98;57.93
63285;BME280;49409;55.708;37.522;2022-09-27T06:20:42;99035.34;;;13.96;57.59
63285;BME280;49409;55.708;37.522;2022-09-27T06:23:20;99009.72;;;13.83;58.08
63285;BME280;49409;55.708;37.522;2022-09-27T06:25:47;99029.94;;;13.93;57.77
63285;BME280;49409;55.708;37.522;2022-09-27T06:28:13;98999.81;;;13.73;57.84
63285;BME280;49409;55.708;37.522;2022-09-27T06:30:40;98996.72;;;13.71;57.95
63285;BME280;49409;55.708;37.522;2022-09-27T06:33:08;99019.66;;;13.93;58.29
63285;BME280;49409;55.708;37.522;2022-09-27T06:35:34;99029.31;;;14.11;58.12
63285;BME280;49409;55.708;37.522;2022-09-27T06:38:05;99031.25;;;14.23;57.88
63285;BME280;49409;55.708;37.522;2022-09-27T06:40:33;99007.94;;;14.11;57.34
63285;BME280;49409;55.708;37.522;2022-09-27T06:43:07;99028.91;;;14.21;57.50
63285;BME280;49409;55.708;37.522;2022-09-27T06:45:34;99027.50;;;14.17;57.55
63285;BME280;49409;55.708;37.522;2022-09-27T06:48:01;99021.47;;;14.09;57.63
63285;BME280;49409;55.708;37.522;2022-09-27T06:50:30;99025.31;;;14.12;57.94
63285;BME280;49409;55.708;37.522;2022-09-27T06:52:57;98982.72;;;13.87;57.76
63285;BME280;49409;55.708;37.522;2022-09-27T06:55:23;99023.25;;;14.25;58.00
63285;BME280;49409;55.708;37.522;2022-09-27T06:57:53;99007.75;;;14.27;58.42
63285;BME280;49409;55.708;37.522;2022-09-27T07:00:37;99026.75;;;14.60;57.53
63285;BME280;49409;55.708;37.522;2022-09-27T07:03:03;99011.53;;;14.65;57.90
63285;BME280;49409;55.708;37.522;2022-09-27T07:05:29;99017.00;;;14.78;57.00
63285;BME280;49409;55.708;37.522;2022-09-27T07:07:56;99023.34;;;14.87;56.46
63285;BME280;49409;55.708;37.522;2022-09-27T07:10:24;99015.81;;;14.88;55.91
63285;BME280;49409;55.708;37.522;2022-09-27T07:12:50;99018.81;;;15.03;55.53
63285;BME280;49409;55.708;37.522;2022-09-27T07:15:17;99016.69;;;15.16;55.25
63285;BME280;49409;55.708;37.522;2022-09-27T07:17:42;99020.13;;;15.30;54.06
63285;BME280;49409;55.708;37.522;2022-09-27T07:20:08;98996.09;;;15.26;52.99
63285;BME280;49409;55.708;37.522;2022-09-27T07:22:41;99016.78;;;15.53;54.58
63285;BME280;49409;55.708;37.522;2022-09-27T07:25:10;99013.41;;;15.58;53.94
63285;BME280;49409;55.708;37.522;2022-09-27T07:27:36;99009.41;;;15.69;54.10
63285;BME280;49409;55.708;37.522;2022-09-27T07:30:01;99016.84;;;15.90;54.02
63285;BME280;49409;55.708;37.522;2022-09-27T07:32:27;99012.06;;;16.09;52.20
63285;BME280;49409;55.708;37.522;2022-09-27T07:34:52;99011.75;;;16.16;51.51
63285;BME280;49409;55.708;37.522;2022-09-27T07:37:18;99024.53;;;16.32;52.06
63285;BME280;49409;55.708;37.522;2022-09-27T07:39:43;99001.72;;;16.19;52.21
63285;BME280;49409;55.708;37.522;2022-09-27T07:42:09;99014.84;;;16.09;51.63
63285;BME280;49409;55.708;37.522;2022-09-27T07:44:35;99019.31;;;16.06;51.41
63285;BME280;49409;55.708;37.522;2022-09-27T07:47:00;98990.03;;;15.87;52.78
63285;BME280;49409;55.708;37.522;2022-09-27T07:49:26;99027.66;;;16.16;51.66
63285;BME280;49409;55.708;37.522;2022-09-27T07:51:52;99009.59;;;16.11;51.36
63285;BME280;49409;55.708;37.522;2022-09-27T07:54:17;99009.47;;;15.96;51.48
63285;BME280;49409;55.708;37.522;2022-09-27T07:56:46;99023.63;;;15.89;52.24
63285;BME280;49409;55.708;37.522;2022-09-27T07:59:11;98996.16;;;15.63;52.32
63285;BME280;49409;55.708;37.522;2022-09-27T08:01:37;99004.34;;;15.85;52.59
63285;BME280;49409;55.708;37.522;2022-09-27T08:04:03;99010.69;;;16.04;52.02
63285;BME280;49409;55.708;37.522;2022-09-27T08:06:29;99026.25;;;16.30;51.43
63285;BME280;49409;55.708;37.522;2022-09-27T08:08:55;99031.34;;;16.31;51.20
63285;BME280;49409;55.708;37.522;2022-09-27T08:11:22;99012.53;;;16.35;50.07
63285;BME280;49409;55.708;37.522;2022-09-27T08:13:48;99010.34;;;16.39;49.60
63285;BME280;49409;55.708;37.522;2022-09-27T08:16:17;99023.88;;;16.65;49.36
63285;BME280;49409;55.708;37.522;2022-09-27T08:18:42;99018.00;;;16.63;50.15
63285;BME280;49409;55.708;37.522;2022-09-27T08:21:08;99008.44;;;16.64;47.90
63285;BME280;49409;55.708;37.522;2022-09-27T08:23:33;99020.72;;;16.91;48.24
63285;BME280;49409;55.708;37.522;2022-09-27T08:26:01;99015.47;;;16.93;48.04
63285;BME280;49409;55.708;37.522;2022-09-27T08:28:27;99005.63;;;16.82;47.78
63285;BME280;49409;55.708;37.522;2022-09-27T08:34:14;99021.41;;;16.67;47.76
63285;BME280;49409;55.708;37.522;2022-09-27T08:36:42;99014.34;;;16.48;49.00
63285;BME280;49409;55.708;37.522;2022-09-27T08:39:08;98998.34;;;16.33;48.95
63285;BME280;49409;55.708;37.522;2022-09-27T08:41:35;99018.34;;;16.46;48.83
63285;BME280;49409;55.708;37.522;2022-09-27T08:46:50;98988.06;;;16.67;48.80
63285;BME280;49409;55.708;37.522;2022-09-27T08:52:05;99011.97;;;17.16;46.43
63285;BME280;49409;55.708;37.522;2022-09-27T08:54:34;98986.66;;;17.14;45.97
63285;BME280;49409;55.708;37.522;2022-09-27T08:57:03;99005.13;;;17.27;45.62
63285;BME280;49409;55.708;37.522;2022-09-27T08:59:41;99017.09;;;17.42;46.50
63285;BME280;49409;55.708;37.522;2022-09-27T09:02:22;98995.19;;;17.35;46.12
63285;BME280;49409;55.708;37.522;2022-09-27T09:04:50;99003.81;;;17.85;47.30
63285;BME280;49409;55.708;37.522;2022-09-27T09:10:38;99006.84;;;17.48;45.97
63285;BME280;49409;55.708;37.522;2022-09-27T09:27:03;99011.00;;;16.86;46.88
63285;BME280;49409;55.708;37.522;2022-09-27T09:35:24;99007.75;;;16.88;47.12
63285;BME280;49409;55.708;37.522;2022-09-27T09:38:14;99000.94;;;16.98;47.30
63285;BME280;49409;55.708;37.522;2022-09-27T09:40:47;98998.44;;;17.00;46.40
63285;BME280;49409;55.708;37.522;2022-09-27T09:43:24;98994.09;;;17.08;46.33
63285;BME280;49409;55.708;37.522;2022-09-27T09:46:24;98994.25;;;17.38;47.01
63285;BME280;49409;55.708;37.522;2022-09-27T09:48:59;98953.31;;;17.14;46.01
63285;BME280;49409;55.708;37.522;2022-09-27T09:51:37;98997.44;;;17.45;46.24
63285;BME280;49409;55.708;37.522;2022-09-27T09:54:10;98996.53;;;17.39;45.50
63285;BME280;49409;55.708;37.522;2022-09-27T09:56:45;99002.88;;;17.40;45.73
63285;BME280;49409;55.708;37.522;2022-09-27T09:59:58;98994.06;;;17.41;46.05
63285;BME280;49409;55.708;37.522;2022-09-27T10:02:29;98994.25;;;17.38;44.89
63285;BME280;49409;55.708;37.522;2022-09-27T10:04:56;98979.81;;;17.24;46.24
63285;BME280;49409;55.708;37.522;2022-09-27T10:07:23;98979.44;;;17.32;46.74
63285;BME280;49409;55.708;37.522;2022-09-27T10:09:51;98981.66;;;17.52;47.16
63285;BME280;49409;55.708;37.522;2022-09-27T10:12:17;98987.56;;;17.44;45.16
63285;BME280;49409;55.708;37.522;2022-09-27T10:14:45;98933.25;;;17.10;45.01
63285;BME280;49409;55.708;37.522;2022-09-27T10:17:15;98970.16;;;17.35;45.60
63285;BME280;49409;55.708;37.522;2022-09-27T10:19:43;98975.97;;;17.46;45.31
63285;BME280;49409;55.708;37.522;2022-09-27T10:22:17;98969.69;;;17.36;45.03
63285;BME280;49409;55.708;37.522;2022-09-27T10:24:57;98986.25;;;17.55;46.29
63285;BME280;49409;55.708;37.522;2022-09-27T10:27:26;98974.34;;;17.54;45.52
63285;BME280;49409;55.708;37.522;2022-09-27T10:29:56;98981.84;;;17.63;45.35
63285;BME280;49409;55.708;37.522;2022-09-27T10:32:26;98984.47;;;17.67;44.68
63285;BME280;49409;55.708;37.522;2022-09-27T10:34:55;98983.59;;;17.60;44.96
63285;BME280;49409;55.708;37.522;2022-09-27T10:37:22;98960.88;;;17.38;44.27
63285;BME280;49409;55.708;37.522;2022-09-27T10:39:49;98981.56;;;17.37;44.21
63285;BME280;49409;55.708;37.522;2022-09-27T10:45:35;98974.13;;;17.43;45.12
63285;BME280;49409;55.708;37.522;2022-09-27T10:48:01;98958.19;;;17.19;45.21
63285;BME280;49409;55.708;37.522;2022-09-27T10:50:31;98962.44;;;17.30;45.42
63285;BME280;49409;55.708;37.522;2022-09-27T10:53:19;98959.63;;;17.39;45.04
63285;BME280;49409;55.708;37.522;2022-09-27T10:55:48;98947.38;;;17.21;45.33
63285;BME280;49409;55.708;37.522;2022-09-27T10:58:35;98947.44;;;17.36;44.84
63285;BME280;49409;55.708;37.522;2022-09-27T11:01:08;98971.63;;;17.45;44.05
63285;BME280;49409;55.708;37.522;2022-09-27T11:03:49;98976.84;;;17.52;43.72
63285;BME280;49409;55.708;37.522;2022-09-27T11:08:47;98964.41;;;17.62;43.40
63285;BME280;49409;55.708;37.522;2022-09-27T11:13:39;98958.75;;;17.33;43.37
63285;BME280;49409;55.708;37.522;2022-09-27T11:16:27;98958.63;;;17.27;43.97
63285;BME280;49409;55.708;37.522;2022-09-27T11:22:15;98964.75;;;17.07;43.16
63285;BME280;49409;55.708;37.522;2022-09-27T11:27:58;98956.72;;;17.09;44.83
63285;BME280;49409;55.708;37.522;2022-09-27T11:38:30;98924.91;;;16.77;44.39
63285;BME280;49409;55.708;37.522;2022-09-27T11:41:00;98939.84;;;16.79;43.73
63285;BME280;49409;55.708;37.522;2022-09-27T11:59:50;98925.75;;;16.59;44.82
63285;BME280;49409;55.708;37.522;2022-09-27T12:05:31;98936.94;;;16.83;43.41
63285;BME280;49409;55.708;37.522;2022-09-27T12:08:06;98938.28;;;16.78;43.56
63285;BME280;49409;55.708;37.522;2022-09-27T12:10:40;98926.88;;;16.76;44.09
63285;BME280;49409;55.708;37.522;2022-09-27T12:13:11;98911.22;;;16.64;43.84
63285;BME280;49409;55.708;37.522;2022-09-27T12:15:39;98916.06;;;17.12;43.91
63285;BME280;49409;55.708;37.522;2022-09-27T12:18:16;98901.78;;;16.71;43.98
63285;BME280;49409;55.708;37.522;2022-09-27T12:20:45;98913.69;;;16.62;43.82
63285;BME280;49409;55.708;37.522;2022-09-27T12:23:17;98916.00;;;16.63;43.91
63285;BME280;49409;55.708;37.522;2022-09-27T12:25:45;98910.63;;;16.51;43.79
63285;BME280;49409;55.708;37.522;2022-09-27T12:30:52;98899.28;;;16.39;44.42
63285;BME280;49409;55.708;37.522;2022-09-27T12:34:03;98906.59;;;16.61;44.49
63285;BME280;49409;55.708;37.522;2022-09-27T12:36:32;98909.13;;;16.50;44.46
63285;BME280;49409;55.708;37.522;2022-09-27T12:39:09;98906.34;;;16.40;45.11
63285;BME280;49409;55.708;37.522;2022-09-27T12:41:41;98903.44;;;16.35;45.06
63285;BME280;49409;55.708;37.522;2022-09-27T12:44:10;98903.59;;;16.40;45.07
63285;BME280;49409;55.708;37.522;2022-09-27T12:46:53;98900.03;;;16.49;44.90
63285;BME280;49409;55.708;37.522;2022-09-27T12:52:01;98866.88;;;16.36;44.20
63285;BME280;49409;55.708;37.522;2022-09-27T13:14:04;98881.72;;;16.66;44.31
63285;BME280;49409;55.708;37.522;2022-09-27T13:16:41;98898.63;;;16.78;45.09
63285;BME280;49409;55.708;37.522;2022-09-27T13:22:38;98888.75;;;16.86;44.60
63285;BME280;49409;55.708;37.522;2022-09-27T13:31:11;98865.03;;;16.66;44.70
63285;BME280;49409;55.708;37.522;2022-09-27T13:33:40;98874.47;;;16.69;44.41
63285;BME280;49409;55.708;37.522;2022-09-27T13:39:15;98877.03;;;17.06;44.41
63285;BME280;49409;55.708;37.522;2022-09-27T13:46:46;98869.59;;;16.55;44.60
63285;BME280;49409;55.708;37.522;2022-09-27T13:49:35;98879.88;;;16.63;44.45
63285;BME280;49409;55.708;37.522;2022-09-27T13:52:33;98876.69;;;16.56;44.62
63285;BME280;49409;55.708;37.522;2022-09-27T13:55:01;98876.91;;;16.43;45.30
63285;BME280;49409;55.708;37.522;2022-09-27T14:00:04;98857.03;;;16.35;45.09
63285;BME280;49409;55.708;37.522;2022-09-27T14:02:38;98847.75;;;16.38;45.69
63285;BME280;49409;55.708;37.522;2022-09-27T14:05:10;98870.09;;;16.44;45.30
63285;BME280;49409;55.708;37.522;2022-09-27T14:07:41;98870.09;;;16.44;45.38
63285;BME280;49409;55.708;37.522;2022-09-27T14:10:13;98869.34;;;16.43;45.41
63285;BME280;49409;55.708;37.522;2022-09-27T14:12:40;98862.69;;;16.83;45.03
63285;BME280;49409;55.708;37.522;2022-09-27T14:15:07;98869.47;;;16.49;45.23
63285;BME280;49409;55.708;37.522;2022-09-27T14:17:41;98859.16;;;16.40;45.56
63285;BME280;49409;55.708;37.522;2022-09-27T14:22:58;98847.19;;;16.25;45.98
63285;BME280;49409;55.708;37.522;2022-09-27T14:25:24;98853.69;;;16.22;45.96
63285;BME280;49409;55.708;37.522;2022-09-27T14:27:50;98853.53;;;16.25;46.13
63285;BME280;49409;55.708;37.522;2022-09-27T14:30:29;98868.75;;;16.39;46.48
63285;BME280;49409;55.708;37.522;2022-09-27T14:32:55;98863.66;;;16.29;46.69
63285;BME280;49409;55.708;37.522;2022-09-27T14:35:29;98858.91;;;16.29;46.58
63285;BME280;49409;55.708;37.522;2022-09-27T14:38:17;98848.13;;;16.22;46.68
63285;BME280;49409;55.708;37.522;2022-09-27T14:41:05;98863.34;;;16.36;47.11
63285;BME280;49409;55.708;37.522;2022-09-27T14:43:33;98846.94;;;16.14;47.25
63285;BME280;49409;55.708;37.522;2022-09-27T14:46:01;98856.19;;;16.11;47.10
63285;BME280;49409;55.708;37.522;2022-09-27T14:48:35;98854.31;;;16.17;47.62
63285;BME280;49409;55.708;37.522;2022-09-27T14:53:42;98851.59;;;16.08;46.97
63285;BME280;49409;55.708;37.522;2022-09-27T14:56:14;98850.97;;;16.03;47.55
63285;BME280;49409;55.708;37.522;2022-09-27T14:58:43;98859.75;;;16.02;48.00
63285;BME280;49409;55.708;37.522;2022-09-27T15:01:18;98842.97;;;15.96;47.66
63285;BME280;49409;55.708;37.522;2022-09-27T15:03:46;98830.97;;;15.90;47.68
63285;BME280;49409;55.708;37.522;2022-09-27T15:06:14;98842.38;;;15.92;47.96
63285;BME280;49409;55.708;37.522;2022-09-27T15:08:41;98840.81;;;15.91;47.93
63285;BME280;49409;55.708;37.522;2022-09-27T15:11:10;98851.28;;;15.96;47.62
63285;BME280;49409;55.708;37.522;2022-09-27T15:13:36;98842.38;;;15.92;48.12
63285;BME280;49409;55.708;37.522;2022-09-27T15:16:12;98846.22;;;15.95;48.21
63285;BME280;49409;55.708;37.522;2022-09-27T15:18:44;98840.97;;;15.88;48.47
63285;BME280;49409;55.708;37.522;2022-09-27T15:21:14;98844.53;;;15.79;48.25
63285;BME280;49409;55.708;37.522;2022-09-27T15:23:42;98827.75;;;15.64;48.21
63285;BME280;49409;55.708;37.522;2022-09-27T15:28:47;98813.16;;;15.54;48.47
63285;BME280;49409;55.708;37.522;2022-09-27T15:31:13;98832.97;;;15.71;48.59
63285;BME280;49409;55.708;37.522;2022-09-27T15:33:40;98822.97;;;15.64;48.59
63285;BME280;49409;55.708;37.522;2022-09-27T15:36:09;98816.81;;;15.60;48.48
63285;BME280;49409;55.708;37.522;2022-09-27T15:38:38;98812.19;;;15.57;48.76
63285;BME280;49409;55.708;37.522;2022-09-27T15:41:12;98803.88;;;15.48;49.25
63285;BME280;49409;55.708;37.522;2022-09-27T15:43:49;98810.97;;;15.58;48.67
63285;BME280;49409;55.708;37.522;2022-09-27T15:46:41;98810.50;;;15.60;49.01
63285;BME280;49409;55.708;37.522;2022-09-27T15:51:49;98814.38;;;15.44;49.26
63285;BME280;49409;55.708;37.522;2022-09-27T15:54:20;98810.53;;;15.41;49.17
63285;BME280;49409;55.708;37.522;2022-09-27T15:56:47;98818.22;;;15.37;49.26
63285;BME280;49409;55.708;37.522;2022-09-27T16:01:44;98796.22;;;15.24;49.35
63285;BME280;49409;55.708;37.522;2022-09-27T16:04:10;98801.94;;;15.21;49.72
63285;BME280;49409;55.708;37.522;2022-09-27T16:06:35;98792.09;;;15.11;49.80